Time;durP1;ratioP1;P1;durP2;ratioP2;P2;SDS_P1;SDS_P2;PMS_P1;PMS_P2;Temp;Humidity;BMP_temperature;BMP_pressure;BME280_temperature;BME280_humidity;BME280_pressure;Samples;Min_cycle;Max_cycle;Signal;HPM_P1;HPM_P2
2020/12/06 00:00:16;;;;;;;3.22;0.10;;;10.30;99.90;;;;;;5086307;28;20048;-56
2020/12/06 00:02:43;;;;;;;0.70;0.10;;;10.30;99.90;;;;;;5088373;28;20047;-57
2020/12/06 00:05:10;;;;;;;0.82;0.10;;;10.30;99.90;;;;;;5082498;28;20048;-57
2020/12/06 00:07:38;;;;;;;1.00;0.10;;;10.20;99.90;;;;;;5079114;28;20071;-57
2020/12/06 00:10:09;;;;;;;0.30;0.10;;;10.30;99.90;;;;;;5089361;28;20044;-57
2020/12/06 00:12:39;;;;;;;0.20;0.00;;;10.10;99.90;;;;;;5087203;28;20040;-57
2020/12/06 00:15:09;;;;;;;0.10;0.00;;;10.00;99.90;;;;;;5086897;28;20055;-57
2020/12/06 00:17:36;;;;;;;0.32;0.00;;;9.90;99.90;;;;;;5084390;28;20044;-55
2020/12/06 00:20:11;;;;;;;0.70;0.00;;;9.80;99.90;;;;;;5087892;28;20063;-57
2020/12/06 00:22:38;;;;;;;0.00;0.00;;;9.70;99.90;;;;;;5082162;28;20060;-56
2020/12/06 00:25:05;;;;;;;0.30;0.00;;;9.60;99.90;;;;;;5086246;28;20040;-54
2020/12/06 00:27:35;;;;;;;0.10;0.00;;;9.50;99.90;;;;;;5081765;28;20052;-57
2020/12/06 00:30:06;;;;;;;0.00;0.00;;;9.50;99.90;;;;;;5090038;28;20464;-55
2020/12/06 00:32:33;;;;;;;0.30;0.00;;;9.40;99.90;;;;;;5092901;28;20048;-54
2020/12/06 00:34:59;;;;;;;0.15;0.00;;;9.30;99.90;;;;;;5087124;28;20051;-57
2020/12/06 00:37:27;;;;;;;0.10;0.00;;;9.30;99.90;;;;;;5088361;28;20048;-54
2020/12/06 00:39:53;;;;;;;0.10;0.00;;;9.30;99.90;;;;;;5089837;28;20048;-54
2020/12/06 00:42:20;;;;;;;0.00;0.00;;;9.30;99.90;;;;;;5092510;28;20056;-54
2020/12/06 00:44:47;;;;;;;0.00;0.00;;;9.30;99.90;;;;;;5091435;28;20055;-57
2020/12/06 00:47:13;;;;;;;0.10;0.00;;;9.40;99.90;;;;;;5087747;28;20044;-56
2020/12/06 00:49:40;;;;;;;0.15;0.00;;;9.40;99.90;;;;;;5090839;28;20415;-56
2020/12/06 00:52:06;;;;;;;1.67;0.00;;;9.40;99.90;;;;;;5090333;28;20040;-53
2020/12/06 00:54:32;;;;;;;0.80;0.00;;;9.40;99.90;;;;;;5094572;28;20055;-54
2020/12/06 00:56:59;;;;;;;0.32;0.10;;;9.40;99.90;;;;;;5090132;28;20056;-57
2020/12/06 00:59:26;;;;;;;0.10;0.00;;;9.40;99.90;;;;;;5085612;28;20044;-54
2020/12/06 01:01:52;;;;;;;0.63;0.00;;;9.40;99.90;;;;;;5083537;28;20059;-56
2020/12/06 01:04:19;;;;;;;0.22;0.20;;;9.40;99.90;;;;;;5077725;28;20047;-57
2020/12/06 01:06:45;;;;;;;1.55;0.10;;;9.40;99.90;;;;;;5090362;28;20056;-56
2020/12/06 01:09:12;;;;;;;0.50;0.10;;;9.40;99.90;;;;;;5085451;28;20051;-54
2020/12/06 01:11:38;;;;;;;0.43;0.00;;;9.40;99.90;;;;;;5087732;28;20041;-54
2020/12/06 01:14:05;;;;;;;0.30;0.00;;;9.30;99.90;;;;;;5087406;28;20400;-55
2020/12/06 01:16:31;;;;;;;1.05;0.00;;;9.30;99.90;;;;;;5082865;28;20049;-56
2020/12/06 01:18:57;;;;;;;0.22;0.00;;;9.20;99.90;;;;;;5083899;28;20059;-57
2020/12/06 01:21:24;;;;;;;0.30;0.00;;;9.20;99.90;;;;;;5078508;28;20065;-57
2020/12/06 01:23:50;;;;;;;0.22;0.00;;;9.20;99.90;;;;;;5091907;28;20051;-56
2020/12/06 01:26:17;;;;;;;1.00;0.00;;;9.20;99.90;;;;;;5087333;28;20063;-56
2020/12/06 01:28:43;;;;;;;0.17;0.00;;;9.20;99.90;;;;;;5092331;28;20048;-56
2020/12/06 01:31:10;;;;;;;0.03;0.00;;;9.10;99.90;;;;;;5084765;28;20048;-57
2020/12/06 01:33:36;;;;;;;1.95;0.10;;;9.10;99.90;;;;;;5077233;28;20048;-56
2020/12/06 01:36:03;;;;;;;0.40;0.10;;;9.10;99.90;;;;;;5085742;28;20040;-53
2020/12/06 01:38:29;;;;;;;0.30;0.10;;;9.10;99.90;;;;;;5090640;28;20043;-57
2020/12/06 01:40:56;;;;;;;0.40;0.10;;;9.10;99.90;;;;;;5090480;28;20040;-57
2020/12/06 01:43:22;;;;;;;0.50;0.17;;;9.10;99.90;;;;;;5087358;28;20052;-56
2020/12/06 01:45:49;;;;;;;1.30;0.10;;;9.00;99.90;;;;;;5091476;28;20040;-55
2020/12/06 01:48:17;;;;;;;0.10;0.00;;;9.00;99.90;;;;;;5087234;28;20040;-56
2020/12/06 01:50:43;;;;;;;0.65;0.00;;;9.00;99.90;;;;;;5082199;28;20071;-56
2020/12/06 01:53:10;;;;;;;0.00;0.00;;;9.00;99.90;;;;;;5088146;28;20043;-56
2020/12/06 01:55:38;;;;;;;1.10;0.00;;;9.00;99.90;;;;;;5088998;28;20642;-55
2020/12/06 01:58:07;;;;;;;0.80;0.08;;;9.00;99.90;;;;;;5076977;28;20071;-57
2020/12/06 02:00:35;;;;;;;0.10;0.00;;;9.00;99.90;;;;;;5083658;28;20400;-57
2020/12/06 02:03:02;;;;;;;1.65;0.00;;;9.00;99.90;;;;;;5085882;28;20047;-56
2020/12/06 02:05:30;;;;;;;0.10;0.00;;;9.00;99.90;;;;;;5087188;28;20044;-56
2020/12/06 02:07:57;;;;;;;0.10;0.00;;;9.00;99.90;;;;;;5093055;28;20063;-57
2020/12/06 02:10:28;;;;;;;0.20;0.00;;;9.00;99.90;;;;;;5089171;28;20055;-54
2020/12/06 02:12:55;;;;;;;1.80;0.00;;;9.00;99.90;;;;;;5083685;28;20496;-57
2020/12/06 02:15:23;;;;;;;1.25;0.10;;;9.00;99.90;;;;;;5090199;28;20055;-57
2020/12/06 02:17:50;;;;;;;0.20;0.00;;;9.00;99.90;;;;;;5091393;28;20051;-54
2020/12/06 02:20:18;;;;;;;0.13;0.00;;;9.00;99.90;;;;;;5092990;28;20412;-56
2020/12/06 02:22:44;;;;;;;0.10;0.10;;;9.00;99.90;;;;;;5084820;28;20422;-54
2020/12/06 02:25:11;;;;;;;0.50;0.00;;;9.00;99.90;;;;;;5090643;28;20044;-57
2020/12/06 02:27:37;;;;;;;0.32;0.00;;;9.00;99.90;;;;;;5085864;28;20067;-54
2020/12/06 02:30:04;;;;;;;0.10;0.00;;;8.90;99.90;;;;;;5088311;28;20047;-57
2020/12/06 02:32:31;;;;;;;0.10;0.00;;;8.90;99.90;;;;;;5079688;28;20520;-56
2020/12/06 02:34:57;;;;;;;0.15;0.00;;;8.90;99.90;;;;;;5084685;28;20469;-56
2020/12/06 02:37:24;;;;;;;0.22;0.00;;;8.90;99.90;;;;;;5084296;28;20045;-57
2020/12/06 02:39:51;;;;;;;0.00;0.00;;;9.00;99.90;;;;;;5085026;28;20059;-57
2020/12/06 02:42:18;;;;;;;0.00;0.00;;;9.00;99.90;;;;;;5090113;28;20044;-55
2020/12/06 02:44:45;;;;;;;0.10;0.00;;;8.90;99.90;;;;;;5086088;28;20101;-57
2020/12/06 02:47:11;;;;;;;0.08;0.00;;;8.90;99.90;;;;;;5087032;28;20059;-56
2020/12/06 02:49:41;;;;;;;1.20;0.00;;;9.00;99.90;;;;;;5090295;28;20035;-55
2020/12/06 02:52:08;;;;;;;0.57;0.00;;;9.00;99.90;;;;;;5084333;28;20044;-56
2020/12/06 02:54:35;;;;;;;0.00;0.00;;;9.00;99.90;;;;;;5089806;28;20451;-56
2020/12/06 02:57:02;;;;;;;0.10;0.00;;;8.90;99.90;;;;;;5084767;28;20075;-57
2020/12/06 02:59:29;;;;;;;1.02;0.00;;;9.00;99.90;;;;;;5085556;28;20079;-57
2020/12/06 03:01:56;;;;;;;0.82;0.00;;;9.00;99.90;;;;;;5089650;28;20044;-56
2020/12/06 03:04:23;;;;;;;0.00;0.00;;;9.00;99.90;;;;;;5090800;28;20048;-56
2020/12/06 03:06:49;;;;;;;0.03;0.00;;;9.00;99.90;;;;;;5086700;28;20059;-54
2020/12/06 03:09:16;;;;;;;0.00;0.00;;;9.00;99.90;;;;;;5085739;28;20487;-57
2020/12/06 03:11:42;;;;;;;0.13;0.00;;;9.00;99.90;;;;;;5088332;28;20048;-55
2020/12/06 03:14:09;;;;;;;0.20;0.00;;;9.00;99.90;;;;;;5085172;28;20040;-57
2020/12/06 03:16:35;;;;;;;0.13;0.00;;;8.90;99.90;;;;;;5082554;28;20133;-56
2020/12/06 03:19:02;;;;;;;0.03;0.00;;;8.90;99.90;;;;;;5079703;28;20055;-57
2020/12/06 03:21:28;;;;;;;0.00;0.00;;;8.90;99.90;;;;;;5081679;28;20048;-56
2020/12/06 03:23:55;;;;;;;2.22;0.17;;;9.00;99.90;;;;;;5087392;28;20048;-56
2020/12/06 03:26:21;;;;;;;0.10;0.00;;;9.00;99.90;;;;;;5085329;28;20043;-57
2020/12/06 03:28:47;;;;;;;0.00;0.00;;;9.00;99.90;;;;;;5088670;28;20051;-56
2020/12/06 03:31:14;;;;;;;0.10;0.00;;;9.00;99.90;;;;;;5084185;28;20484;-54
2020/12/06 03:33:40;;;;;;;0.00;0.00;;;8.90;99.90;;;;;;5090674;28;20043;-57
2020/12/06 03:36:07;;;;;;;1.95;0.00;;;9.00;99.90;;;;;;5082099;28;20048;-56
2020/12/06 03:38:34;;;;;;;0.10;0.00;;;8.90;99.90;;;;;;5089645;28;20056;-57
2020/12/06 03:41:00;;;;;;;0.10;0.00;;;8.90;99.90;;;;;;5083942;28;20044;-55
2020/12/06 03:43:27;;;;;;;0.90;0.70;;;8.90;99.90;;;;;;5079810;28;20122;-55
2020/12/06 03:45:53;;;;;;;3.10;0.50;;;8.90;99.90;;;;;;5089401;28;20507;-57
2020/12/06 03:48:20;;;;;;;1.35;0.30;;;8.90;99.90;;;;;;5083524;28;20401;-54
2020/12/06 03:50:46;;;;;;;0.00;0.00;;;8.90;99.90;;;;;;5086731;28;20060;-57
2020/12/06 03:53:13;;;;;;;0.35;0.00;;;8.90;99.90;;;;;;5084733;28;20044;-55
2020/12/06 03:55:39;;;;;;;0.20;0.00;;;8.90;99.90;;;;;;5075273;28;20056;-56
2020/12/06 03:58:09;;;;;;;0.65;0.00;;;8.90;99.90;;;;;;5085500;28;20048;-53
2020/12/06 04:00:35;;;;;;;0.20;0.00;;;8.90;99.90;;;;;;5089749;28;20051;-57
2020/12/06 04:03:02;;;;;;;0.17;0.00;;;8.80;99.90;;;;;;5075705;28;20059;-56
2020/12/06 04:05:29;;;;;;;0.10;0.10;;;8.90;99.90;;;;;;5077263;28;20397;-55
2020/12/06 04:07:55;;;;;;;0.10;0.00;;;8.90;99.90;;;;;;5076617;28;20468;-54
2020/12/06 04:10:22;;;;;;;0.00;0.00;;;8.90;99.90;;;;;;5086164;28;20404;-55
2020/12/06 04:12:48;;;;;;;0.10;0.00;;;8.90;99.90;;;;;;5088480;28;20052;-57
2020/12/06 04:15:15;;;;;;;0.00;0.00;;;8.80;99.90;;;;;;5088445;28;20398;-56
2020/12/06 04:17:41;;;;;;;0.82;0.00;;;8.80;99.90;;;;;;5087858;28;20052;-56
2020/12/06 04:20:09;;;;;;;0.47;0.00;;;8.80;99.90;;;;;;5078640;28;20044;-56
2020/12/06 04:22:36;;;;;;;0.20;0.00;;;8.80;99.90;;;;;;5084717;28;20052;-55
2020/12/06 04:25:03;;;;;;;0.03;0.00;;;8.80;99.90;;;;;;5089816;28;20044;-57
2020/12/06 04:27:30;;;;;;;1.85;0.00;;;8.80;99.90;;;;;;5083350;28;20378;-57
2020/12/06 04:29:57;;;;;;;0.13;0.00;;;8.70;99.90;;;;;;5082120;28;20400;-56
2020/12/06 04:32:24;;;;;;;0.00;0.00;;;8.80;99.90;;;;;;5085370;28;20392;-54
2020/12/06 04:34:50;;;;;;;0.00;0.00;;;8.70;99.90;;;;;;5087218;28;20060;-57
2020/12/06 04:37:17;;;;;;;0.10;0.00;;;8.80;99.90;;;;;;5076701;28;20059;-54
2020/12/06 04:39:43;;;;;;;0.00;0.00;;;8.70;99.90;;;;;;5076546;28;20063;-56
2020/12/06 04:42:10;;;;;;;1.08;0.00;;;8.70;99.90;;;;;;5081474;28;20048;-56
2020/12/06 04:44:37;;;;;;;0.28;0.00;;;8.80;99.90;;;;;;5083466;28;20048;-55
2020/12/06 04:47:06;;;;;;;0.00;0.00;;;8.70;99.90;;;;;;5084243;28;20036;-55
2020/12/06 04:49:45;;;;;;;0.40;0.00;;;8.70;99.90;;;;;;5084095;28;20053;-57
2020/12/06 04:52:17;;;;;;;0.80;0.00;;;8.70;99.90;;;;;;5085311;28;20052;-55
2020/12/06 04:55:06;;;;;;;0.85;0.00;;;8.70;99.90;;;;;;5088719;28;20102;-56
2020/12/06 04:57:37;;;;;;;0.10;0.00;;;8.70;99.90;;;;;;5084967;28;20559;-55
2020/12/06 05:00:09;;;;;;;1.55;0.00;;;8.70;99.90;;;;;;5090716;28;20115;-56
2020/12/06 05:02:39;;;;;;;0.00;0.00;;;8.70;99.90;;;;;;5085351;28;20464;-53
2020/12/06 05:05:06;;;;;;;0.10;0.00;;;8.70;99.90;;;;;;5086581;28;20463;-56
2020/12/06 05:07:34;;;;;;;0.17;0.00;;;8.60;99.90;;;;;;5075762;28;20047;-55
2020/12/06 05:10:03;;;;;;;0.10;0.00;;;8.60;99.90;;;;;;5080022;28;20052;-56
2020/12/06 05:12:29;;;;;;;0.10;0.00;;;8.60;99.90;;;;;;5089247;28;20062;-56
2020/12/06 05:14:56;;;;;;;1.60;0.00;;;8.60;99.90;;;;;;5088491;28;20048;-53
2020/12/06 05:17:22;;;;;;;0.55;0.00;;;8.60;99.90;;;;;;5089726;28;20048;-56
2020/12/06 05:19:49;;;;;;;0.10;0.00;;;8.60;99.90;;;;;;5088477;28;20483;-55
2020/12/06 05:22:15;;;;;;;0.00;0.00;;;8.60;99.90;;;;;;5089192;28;20055;-54
2020/12/06 05:24:42;;;;;;;0.17;0.00;;;8.60;99.90;;;;;;5090972;28;20067;-54
2020/12/06 05:27:09;;;;;;;0.00;0.00;;;8.70;99.90;;;;;;5083406;28;20044;-56
2020/12/06 05:29:42;;;;;;;0.00;0.00;;;8.60;99.90;;;;;;5091596;28;20547;-53
2020/12/06 05:32:09;;;;;;;0.00;0.00;;;8.60;99.90;;;;;;5088577;28;20057;-54
2020/12/06 05:34:40;;;;;;;0.85;0.00;;;8.60;99.90;;;;;;5089953;28;20040;-54
2020/12/06 05:37:07;;;;;;;0.35;0.00;;;8.70;99.90;;;;;;5086959;28;20052;-55
2020/12/06 05:39:34;;;;;;;0.10;0.00;;;8.70;99.90;;;;;;5088257;28;20055;-55
2020/12/06 05:42:00;;;;;;;0.00;0.00;;;8.70;99.90;;;;;;5093009;28;20040;-55
2020/12/06 05:44:27;;;;;;;4.68;0.00;;;8.70;99.90;;;;;;5085554;28;20048;-56
2020/12/06 05:46:54;;;;;;;1.67;0.00;;;8.70;99.90;;;;;;5093629;28;20050;-56
2020/12/06 05:49:23;;;;;;;1.77;0.00;;;8.70;99.90;;;;;;5084697;28;20044;-56
2020/12/06 05:51:51;;;;;;;0.70;0.00;;;8.70;99.90;;;;;;5090978;28;21259;-54
2020/12/06 05:54:22;;;;;;;0.00;0.00;;;8.70;99.90;;;;;;5088597;28;20044;-55
2020/12/06 05:56:52;;;;;;;0.10;0.00;;;8.60;99.90;;;;;;5090567;28;20051;-54
2020/12/06 05:59:22;;;;;;;1.10;0.10;;;8.60;99.90;;;;;;5079333;28;20519;-53
2020/12/06 06:01:51;;;;;;;165.38;3.85;;;8.50;99.90;;;;;;5085672;28;20052;-55
2020/12/06 06:04:20;;;;;;;108.90;2.40;;;8.50;99.90;;;;;;5092019;28;20514;-57
2020/12/06 06:06:50;;;;;;;120.03;2.50;;;8.50;99.90;;;;;;5083511;28;20102;-53
2020/12/06 06:09:19;;;;;;;159.57;2.90;;;8.50;99.90;;;;;;5085736;28;20049;-53
2020/12/06 06:11:55;;;;;;;169.85;3.30;;;8.50;99.90;;;;;;5083856;28;20055;-55
2020/12/06 06:14:23;;;;;;;142.02;1.88;;;8.50;99.90;;;;;;5088394;28;20055;-57
2020/12/06 06:16:51;;;;;;;20.48;0.50;;;8.40;99.90;;;;;;5091747;28;20048;-54
2020/12/06 06:19:21;;;;;;;12.20;0.95;;;8.40;99.90;;;;;;5086252;28;20041;-53
2020/12/06 06:21:48;;;;;;;41.97;8.60;;;8.40;99.90;;;;;;5092190;28;20049;-54
2020/12/06 06:24:23;;;;;;;42.47;18.40;;;8.40;99.90;;;;;;5088721;28;20047;-53
2020/12/06 06:26:51;;;;;;;10.23;3.67;;;8.50;99.90;;;;;;5087976;28;20036;-54
2020/12/06 06:29:19;;;;;;;2.58;0.85;;;8.50;99.90;;;;;;5090037;28;20052;-56
2020/12/06 06:31:54;;;;;;;3.08;0.50;;;8.50;99.90;;;;;;5088120;28;20041;-53
2020/12/06 06:34:25;;;;;;;1.73;0.40;;;8.50;99.90;;;;;;5081256;28;20045;-56
2020/12/06 06:36:52;;;;;;;1.27;0.40;;;8.50;99.90;;;;;;5085286;28;20051;-56
2020/12/06 06:39:20;;;;;;;11.45;0.70;;;8.60;99.90;;;;;;5089822;28;20556;-56
2020/12/06 06:42:05;;;;;;;2.55;1.20;;;8.50;99.90;;;;;;5080693;28;20082;-53
2020/12/06 06:44:32;;;;;;;0.70;0.70;;;8.50;99.90;;;;;;5079834;28;20032;-54
2020/12/06 06:47:03;;;;;;;0.70;0.40;;;8.50;99.90;;;;;;5086007;28;20040;-54
2020/12/06 06:49:30;;;;;;;0.25;0.20;;;8.40;99.90;;;;;;5081032;28;20066;-56
2020/12/06 06:51:57;;;;;;;1.05;0.40;;;8.40;99.90;;;;;;5083458;28;20055;-56
2020/12/06 06:54:29;;;;;;;1.33;0.80;;;8.40;99.90;;;;;;5087977;28;20411;-53
2020/12/06 06:56:57;;;;;;;3.53;1.00;;;8.40;99.90;;;;;;5089866;28;20049;-53
2020/12/06 06:59:43;;;;;;;14.45;2.58;;;8.40;99.90;;;;;;5087640;28;20097;-56
2020/12/06 07:02:31;;;;;;;5.47;1.10;;;8.40;99.90;;;;;;5087557;28;20456;-56
2020/12/06 07:04:59;;;;;;;2.80;0.65;;;8.40;99.90;;;;;;5088287;28;20655;-56
2020/12/06 07:07:44;;;;;;;3.10;0.80;;;8.40;99.90;;;;;;5086519;28;20044;-54
2020/12/06 07:10:12;;;;;;;6.20;1.98;;;8.40;99.90;;;;;;5087330;28;20048;-55
2020/12/06 07:12:41;;;;;;;0.70;0.60;;;8.30;99.90;;;;;;5090636;28;20070;-56
2020/12/06 07:15:09;;;;;;;5.25;2.60;;;8.40;99.90;;;;;;5084463;28;20060;-55
2020/12/06 07:17:37;;;;;;;1.58;0.80;;;8.40;99.90;;;;;;5089294;28;20052;-54
2020/12/06 07:20:05;;;;;;;0.60;0.45;;;8.40;99.90;;;;;;5088079;28;20048;-57
2020/12/06 07:22:32;;;;;;;0.65;0.40;;;8.50;99.90;;;;;;5083438;28;20056;-54
2020/12/06 07:25:00;;;;;;;0.50;0.40;;;8.50;99.90;;;;;;5078129;28;20041;-53
2020/12/06 07:27:27;;;;;;;0.40;0.32;;;8.50;99.90;;;;;;5077432;28;20482;-54
2020/12/06 07:29:54;;;;;;;0.32;0.30;;;8.50;99.90;;;;;;5089520;28;20060;-55
2020/12/06 07:32:20;;;;;;;10.85;1.45;;;8.50;99.90;;;;;;5085923;28;20063;-55
2020/12/06 07:34:48;;;;;;;1.00;0.60;;;8.50;99.90;;;;;;5082098;28;20051;-54
2020/12/06 07:37:15;;;;;;;0.52;0.50;;;8.50;99.90;;;;;;5083864;28;20481;-56
2020/12/06 07:39:46;;;;;;;0.88;0.73;;;8.50;99.90;;;;;;5084792;28;20127;-55
2020/12/06 07:42:33;;;;;;;0.90;0.50;;;8.50;99.90;;;;;;5087594;28;20052;-55
2020/12/06 07:45:01;;;;;;;0.43;0.35;;;8.60;99.90;;;;;;5081860;28;20044;-56
2020/12/06 07:47:28;;;;;;;1.00;0.47;;;8.50;99.90;;;;;;5081874;28;20370;-56
2020/12/06 07:49:56;;;;;;;0.38;0.20;;;8.50;99.90;;;;;;5086608;28;20055;-57
2020/12/06 07:52:34;;;;;;;0.10;0.10;;;8.60;99.90;;;;;;5088122;28;20374;-54
2020/12/06 07:55:03;;;;;;;0.10;0.10;;;8.60;99.90;;;;;;5077736;28;20048;-55
2020/12/06 07:57:38;;;;;;;1.58;0.20;;;8.50;99.90;;;;;;5080602;28;20051;-56
2020/12/06 08:00:13;;;;;;;2.17;0.73;;;8.50;99.90;;;;;;5081443;28;20062;-54
2020/12/06 08:02:49;;;;;;;4.35;1.63;;;8.50;99.90;;;;;;5084708;28;20048;-53
2020/12/06 08:05:21;;;;;;;4.00;1.30;;;8.50;99.90;;;;;;5087515;28;20056;-53
2020/12/06 08:07:58;;;;;;;6.40;4.47;;;8.50;99.90;;;;;;5090109;28;20476;-53
2020/12/06 08:10:29;;;;;;;21.52;13.55;;;8.50;99.90;;;;;;5084389;28;20395;-57
2020/12/06 08:12:57;;;;;;;150.43;15.85;;;8.60;99.90;;;;;;5079748;28;20052;-56
2020/12/06 08:15:25;;;;;;;81.30;10.75;;;8.50;99.90;;;;;;5083343;28;20052;-55
2020/12/06 08:17:53;;;;;;;70.95;10.13;;;8.50;99.90;;;;;;5090016;28;20474;-54
2020/12/06 08:20:25;;;;;;;27.08;3.95;;;8.50;99.90;;;;;;5087328;28;20047;-55
2020/12/06 08:22:59;;;;;;;23.65;5.32;;;8.50;99.90;;;;;;5086852;28;20044;-57
2020/12/06 08:25:29;;;;;;;5.40;1.45;;;8.50;99.90;;;;;;5079402;28;20045;-53
2020/12/06 08:27:58;;;;;;;3.67;1.95;;;8.60;99.90;;;;;;5084329;28;20047;-56
2020/12/06 08:30:27;;;;;;;3.47;1.55;;;8.50;99.90;;;;;;5082760;28;20048;-55
2020/12/06 08:32:58;;;;;;;0.88;0.70;;;8.60;99.90;;;;;;5082313;28;20040;-55
2020/12/06 08:35:46;;;;;;;2.35;0.90;;;8.50;99.90;;;;;;5084681;28;20083;-53
2020/12/06 08:38:22;;;;;;;3.15;1.75;;;8.60;99.90;;;;;;5074756;28;20496;-56
2020/12/06 08:41:12;;;;;;;3.15;1.77;;;8.60;99.90;;;;;;5078098;28;20487;-55
2020/12/06 08:43:49;;;;;;;7.88;5.50;;;8.60;99.90;;;;;;5088595;28;20083;-56
2020/12/06 08:46:25;;;;;;;10.40;7.75;;;8.60;99.90;;;;;;5084183;28;20050;-53
2020/12/06 08:48:54;;;;;;;9.95;6.80;;;8.60;99.90;;;;;;5074978;28;20044;-57
2020/12/06 08:51:28;;;;;;;6.38;4.60;;;8.60;99.90;;;;;;5090416;28;20118;-53
2020/12/06 08:53:57;;;;;;;6.03;4.85;;;8.60;99.90;;;;;;5089368;28;20090;-54
2020/12/06 08:56:38;;;;;;;27.40;15.38;;;8.60;99.90;;;;;;5087729;28;20047;-57
2020/12/06 08:59:16;;;;;;;21.73;12.82;;;8.60;99.90;;;;;;5087506;28;20048;-57
2020/12/06 09:01:49;;;;;;;15.05;10.85;;;8.60;99.90;;;;;;5090195;28;20056;-57
2020/12/06 09:04:16;;;;;;;12.73;8.38;;;8.60;99.90;;;;;;5091860;28;20059;-57
2020/12/06 09:06:43;;;;;;;16.30;11.05;;;8.60;99.90;;;;;;5083916;28;20059;-57
2020/12/06 09:09:10;;;;;;;11.50;9.40;;;8.60;99.90;;;;;;5091088;28;20836;-57
2020/12/06 09:11:36;;;;;;;14.40;10.90;;;8.60;99.90;;;;;;5083387;28;20380;-57
2020/12/06 09:14:03;;;;;;;10.63;7.80;;;8.60;99.90;;;;;;5092056;28;20456;-57
2020/12/06 09:16:30;;;;;;;13.27;9.23;;;8.60;99.90;;;;;;5087008;28;20044;-57
2020/12/06 09:18:56;;;;;;;11.52;9.10;;;8.60;99.90;;;;;;5091553;28;20052;-57
2020/12/06 09:21:23;;;;;;;8.45;7.38;;;8.60;99.90;;;;;;5088744;28;20047;-57
2020/12/06 09:23:50;;;;;;;0.40;0.40;;;8.60;99.90;;;;;;5082407;28;20051;-57
2020/12/06 09:26:16;;;;;;;15.00;10.35;;;8.60;99.90;;;;;;5081038;28;20055;-57
2020/12/06 09:28:43;;;;;;;19.50;14.43;;;8.70;99.90;;;;;;5090104;28;20056;-58
2020/12/06 09:31:10;;;;;;;15.57;11.52;;;8.70;99.90;;;;;;5077588;28;20075;-57
2020/12/06 09:33:36;;;;;;;17.05;11.18;;;8.70;99.90;;;;;;5085642;28;20052;-58
2020/12/06 09:36:04;;;;;;;8.27;3.45;;;8.70;99.90;;;;;;5092253;28;20051;-57
2020/12/06 09:38:30;;;;;;;26.08;14.10;;;8.60;99.90;;;;;;5083671;28;20052;-57
2020/12/06 09:40:57;;;;;;;44.42;21.85;;;8.60;99.90;;;;;;5081208;28;20135;-57
2020/12/06 09:43:24;;;;;;;40.78;20.15;;;8.60;99.90;;;;;;5089529;28;20058;-57
2020/12/06 09:45:50;;;;;;;11.55;6.60;;;8.60;99.90;;;;;;5089295;28;20044;-57
2020/12/06 09:48:17;;;;;;;6.72;4.95;;;8.60;99.90;;;;;;5083975;28;20045;-57
2020/12/06 09:50:44;;;;;;;8.20;5.47;;;8.60;99.90;;;;;;5085505;28;20053;-57
2020/12/06 09:53:11;;;;;;;1.58;1.33;;;8.60;99.90;;;;;;5093609;28;20047;-57
2020/12/06 09:55:38;;;;;;;1.88;1.00;;;8.60;99.90;;;;;;5086639;28;20086;-57
2020/12/06 09:58:04;;;;;;;0.90;0.80;;;8.60;99.90;;;;;;5089443;28;20048;-57
2020/12/06 10:00:31;;;;;;;1.55;0.90;;;8.60;99.90;;;;;;5079939;28;20064;-57
2020/12/06 10:02:57;;;;;;;2.58;0.63;;;8.60;99.90;;;;;;5091032;28;20044;-58
2020/12/06 10:05:24;;;;;;;1.00;0.80;;;8.60;99.90;;;;;;5092277;28;20040;-57
2020/12/06 10:07:50;;;;;;;1.00;0.70;;;8.70;99.90;;;;;;5087555;28;20040;-56
2020/12/06 10:10:17;;;;;;;2.47;0.68;;;8.70;99.90;;;;;;5092236;28;20055;-57
2020/12/06 10:12:43;;;;;;;2.47;0.85;;;8.70;99.90;;;;;;5082938;28;20065;-56
2020/12/06 10:15:10;;;;;;;1.20;0.85;;;8.80;99.90;;;;;;5087411;28;20498;-54
2020/12/06 10:17:38;;;;;;;1.60;1.23;;;8.80;99.90;;;;;;5091416;28;20485;-53
2020/12/06 10:20:08;;;;;;;1.05;0.90;;;8.80;99.90;;;;;;5089709;28;20052;-56
2020/12/06 10:22:35;;;;;;;0.60;0.30;;;8.80;99.90;;;;;;5077082;28;20094;-55
2020/12/06 10:25:05;;;;;;;0.73;0.30;;;8.80;99.90;;;;;;5079684;28;20127;-57
2020/12/06 10:27:32;;;;;;;0.60;0.57;;;8.80;99.90;;;;;;5085377;28;20044;-57
2020/12/06 10:29:59;;;;;;;1.45;0.40;;;8.90;99.90;;;;;;5088003;28;20056;-58
2020/12/06 10:32:25;;;;;;;0.50;0.20;;;8.80;99.90;;;;;;5090846;28;20376;-54
2020/12/06 10:34:52;;;;;;;0.20;0.20;;;8.80;99.90;;;;;;5089820;28;20040;-54
2020/12/06 10:37:19;;;;;;;0.20;0.20;;;8.80;99.90;;;;;;5085998;28;20036;-56
2020/12/06 10:39:47;;;;;;;0.73;0.20;;;8.80;99.90;;;;;;5079604;28;20044;-54
2020/12/06 10:42:14;;;;;;;1.85;0.50;;;8.90;99.90;;;;;;5083389;28;20457;-56
2020/12/06 10:44:41;;;;;;;0.60;0.60;;;8.90;99.90;;;;;;5090098;28;20126;-53
2020/12/06 10:47:07;;;;;;;2.90;0.40;;;8.90;99.90;;;;;;5081519;28;20048;-56
2020/12/06 10:49:41;;;;;;;0.70;0.52;;;9.00;99.90;;;;;;5082264;28;20131;-56
2020/12/06 10:52:10;;;;;;;1.20;0.75;;;9.10;99.90;;;;;;5088047;28;20495;-54
2020/12/06 10:54:37;;;;;;;3.38;2.00;;;9.20;99.90;;;;;;5086435;28;20048;-56
2020/12/06 10:57:04;;;;;;;1.60;1.10;;;9.30;99.90;;;;;;5084268;28;20047;-54
2020/12/06 10:59:31;;;;;;;1.50;0.80;;;9.40;99.90;;;;;;5081591;28;20542;-56
2020/12/06 11:01:58;;;;;;;1.38;0.80;;;9.30;99.90;;;;;;5090055;28;20048;-54
2020/12/06 11:04:25;;;;;;;0.60;0.50;;;9.40;99.90;;;;;;5083198;28;20048;-54
2020/12/06 11:06:52;;;;;;;0.70;0.60;;;9.40;99.90;;;;;;5089480;28;20089;-53
2020/12/06 11:09:18;;;;;;;0.93;0.22;;;9.30;99.90;;;;;;5078947;28;20138;-55
2020/12/06 11:11:49;;;;;;;0.40;0.40;;;9.20;99.90;;;;;;5079617;28;20146;-53
2020/12/06 11:14:17;;;;;;;4.07;1.90;;;9.30;99.90;;;;;;5088225;28;20043;-54
2020/12/06 11:16:44;;;;;;;2.25;0.70;;;9.30;99.90;;;;;;5083835;28;20062;-55
2020/12/06 11:19:10;;;;;;;3.42;1.52;;;9.30;99.90;;;;;;5087128;28;20044;-54
2020/12/06 11:21:37;;;;;;;2.55;1.00;;;9.30;99.90;;;;;;5084220;28;20056;-53
2020/12/06 11:24:03;;;;;;;0.40;0.40;;;9.30;99.90;;;;;;5086126;28;20110;-53
2020/12/06 11:26:31;;;;;;;0.10;0.10;;;9.30;99.90;;;;;;5081498;28;20675;-55
2020/12/06 11:28:57;;;;;;;0.15;0.15;;;9.30;99.90;;;;;;5090581;28;20457;-53
2020/12/06 11:31:24;;;;;;;0.30;0.20;;;9.30;99.90;;;;;;5087159;28;20055;-54
2020/12/06 11:33:50;;;;;;;0.43;0.30;;;9.30;99.90;;;;;;5084619;28;20040;-57
2020/12/06 11:36:17;;;;;;;0.30;0.25;;;9.30;99.90;;;;;;5082877;28;20060;-56
2020/12/06 11:38:45;;;;;;;0.25;0.20;;;9.30;99.90;;;;;;5082568;28;20848;-56
2020/12/06 11:41:12;;;;;;;0.55;0.20;;;9.30;99.90;;;;;;5074244;28;20067;-57
2020/12/06 11:43:38;;;;;;;0.22;0.20;;;9.30;99.90;;;;;;5081857;28;20048;-56
2020/12/06 11:46:05;;;;;;;1.20;0.60;;;9.40;99.90;;;;;;5085486;28;20067;-57
2020/12/06 11:48:31;;;;;;;0.50;0.40;;;9.40;99.90;;;;;;5085594;28;20047;-56
2020/12/06 11:50:58;;;;;;;2.20;0.70;;;9.40;99.90;;;;;;5089268;28;20044;-56
2020/12/06 11:53:25;;;;;;;1.85;0.70;;;9.40;99.90;;;;;;5080334;28;20053;-56
2020/12/06 11:55:51;;;;;;;1.35;0.38;;;9.40;99.90;;;;;;5077397;28;20480;-54
2020/12/06 11:58:18;;;;;;;0.50;0.50;;;9.40;99.90;;;;;;5088085;28;20469;-53
2020/12/06 12:00:44;;;;;;;0.50;0.43;;;9.40;99.90;;;;;;5081863;28;20064;-53
2020/12/06 12:03:10;;;;;;;2.15;0.30;;;9.40;99.90;;;;;;5074787;28;20048;-56
2020/12/06 12:05:37;;;;;;;0.10;0.10;;;9.40;99.90;;;;;;5082697;28;20044;-56
2020/12/06 12:08:03;;;;;;;2.03;1.00;;;9.50;99.90;;;;;;5089981;28;20044;-57
2020/12/06 12:10:30;;;;;;;1.33;0.70;;;9.50;99.90;;;;;;5079060;28;20041;-57
2020/12/06 12:12:59;;;;;;;4.00;0.50;;;9.40;99.90;;;;;;5086121;28;20109;-57
2020/12/06 12:15:26;;;;;;;0.40;0.40;;;9.40;99.90;;;;;;5077539;28;20049;-57
2020/12/06 12:17:52;;;;;;;1.92;1.00;;;9.50;99.90;;;;;;5081118;28;20059;-57
2020/12/06 12:20:19;;;;;;;16.88;6.80;;;9.50;99.90;;;;;;5072367;28;20048;-57
2020/12/06 12:22:46;;;;;;;10.88;4.68;;;9.40;99.90;;;;;;5085090;28;20724;-58
2020/12/06 12:25:13;;;;;;;29.33;14.10;;;9.40;99.90;;;;;;5092746;28;20397;-57
2020/12/06 12:27:40;;;;;;;18.90;10.13;;;9.50;99.90;;;;;;5087425;28;20047;-58
2020/12/06 12:30:06;;;;;;;14.43;8.90;;;9.40;99.90;;;;;;5091560;28;21157;-57
2020/12/06 12:32:33;;;;;;;12.75;7.30;;;9.40;99.90;;;;;;5093215;28;20059;-58
2020/12/06 12:35:00;;;;;;;3.28;1.00;;;9.50;99.90;;;;;;5089019;28;20468;-58
2020/12/06 12:37:27;;;;;;;1.98;1.35;;;9.50;99.90;;;;;;5075575;28;20045;-57
2020/12/06 12:39:53;;;;;;;2.47;0.90;;;9.40;99.90;;;;;;5088161;28;20127;-58
2020/12/06 12:42:20;;;;;;;1.20;0.60;;;9.40;99.90;;;;;;5093402;28;20380;-57
2020/12/06 12:44:46;;;;;;;1.23;0.60;;;9.40;99.90;;;;;;5088878;28;20387;-57
2020/12/06 12:47:13;;;;;;;0.70;0.60;;;9.40;99.90;;;;;;5089124;28;20577;-57
2020/12/06 12:49:40;;;;;;;0.50;0.50;;;9.30;99.90;;;;;;5091129;28;20048;-57
2020/12/06 12:52:09;;;;;;;0.57;0.50;;;9.30;99.90;;;;;;5089248;28;20051;-57
2020/12/06 12:54:35;;;;;;;0.35;0.35;;;9.30;99.90;;;;;;5083444;28;20135;-57
2020/12/06 12:57:04;;;;;;;0.40;0.30;;;9.30;99.90;;;;;;5087922;28;20051;-57
2020/12/06 12:59:31;;;;;;;0.50;0.40;;;9.30;99.90;;;;;;5091328;28;20100;-57